sensor_id;sensor_type;location;lat;lon;timestamp;P1;durP1;ratioP1;P2;durP2;ratioP2
4563;SDS011;2294;51.818;8.484;2022-08-25T00:00:44;2.63;;;2.03;;
4563;SDS011;2294;51.818;8.484;2022-08-25T00:03:11;5.13;;;2.43;;
4563;SDS011;2294;51.818;8.484;2022-08-25T00:05:38;5.90;;;2.30;;
4563;SDS011;2294;51.818;8.484;2022-08-25T00:08:05;3.10;;;2.10;;
4563;SDS011;2294;51.818;8.484;2022-08-25T00:10:34;3.30;;;2.40;;
4563;SDS011;2294;51.818;8.484;2022-08-25T00:13:04;4.23;;;3.00;;
4563;SDS011;2294;51.818;8.484;2022-08-25T00:15:32;7.50;;;2.60;;
4563;SDS011;2294;51.818;8.484;2022-08-25T00:17:59;3.90;;;2.53;;
4563;SDS011;2294;51.818;8.484;2022-08-25T00:20:26;9.40;;;2.50;;
4563;SDS011;2294;51.818;8.484;2022-08-25T00:22:54;6.03;;;2.77;;
4563;SDS011;2294;51.818;8.484;2022-08-25T00:25:21;11.03;;;2.53;;
4563;SDS011;2294;51.818;8.484;2022-08-25T00:27:48;3.70;;;2.70;;
4563;SDS011;2294;51.818;8.484;2022-08-25T00:30:17;4.90;;;2.70;;
4563;SDS011;2294;51.818;8.484;2022-08-25T00:32:44;3.40;;;2.60;;
4563;SDS011;2294;51.818;8.484;2022-08-25T00:35:12;4.47;;;2.60;;
4563;SDS011;2294;51.818;8.484;2022-08-25T00:37:40;6.80;;;2.53;;
4563;SDS011;2294;51.818;8.484;2022-08-25T00:40:07;3.43;;;2.70;;
4563;SDS011;2294;51.818;8.484;2022-08-25T00:42:34;3.33;;;2.20;;
4563;SDS011;2294;51.818;8.484;2022-08-25T00:45:02;5.20;;;2.67;;
4563;SDS011;2294;51.818;8.484;2022-08-25T00:47:31;3.43;;;2.60;;
4563;SDS011;2294;51.818;8.484;2022-08-25T00:49:59;3.03;;;2.73;;
4563;SDS011;2294;51.818;8.484;2022-08-25T00:52:28;9.73;;;2.90;;
4563;SDS011;2294;51.818;8.484;2022-08-25T00:54:59;7.27;;;2.60;;
4563;SDS011;2294;51.818;8.484;2022-08-25T00:57:32;8.20;;;2.70;;
4563;SDS011;2294;51.818;8.484;2022-08-25T01:00:03;4.17;;;3.00;;
4563;SDS011;2294;51.818;8.484;2022-08-25T01:02:36;9.87;;;3.53;;
4563;SDS011;2294;51.818;8.484;2022-08-25T01:05:03;5.13;;;2.70;;
4563;SDS011;2294;51.818;8.484;2022-08-25T01:07:31;6.27;;;2.70;;
4563;SDS011;2294;51.818;8.484;2022-08-25T01:09:58;5.30;;;2.90;;
4563;SDS011;2294;51.818;8.484;2022-08-25T01:12:26;6.13;;;2.40;;
4563;SDS011;2294;51.818;8.484;2022-08-25T01:14:53;3.03;;;2.73;;
4563;SDS011;2294;51.818;8.484;2022-08-25T01:17:21;8.23;;;3.17;;
4563;SDS011;2294;51.818;8.484;2022-08-25T01:19:53;4.60;;;3.93;;
4563;SDS011;2294;51.818;8.484;2022-08-25T01:22:22;3.03;;;2.70;;
4563;SDS011;2294;51.818;8.484;2022-08-25T01:24:51;5.20;;;2.70;;
4563;SDS011;2294;51.818;8.484;2022-08-25T01:27:24;4.13;;;2.80;;
4563;SDS011;2294;51.818;8.484;2022-08-25T01:29:51;6.10;;;2.80;;
4563;SDS011;2294;51.818;8.484;2022-08-25T01:32:18;5.27;;;3.60;;
4563;SDS011;2294;51.818;8.484;2022-08-25T01:34:45;4.67;;;2.80;;
4563;SDS011;2294;51.818;8.484;2022-08-25T01:37:13;9.83;;;3.10;;
4563;SDS011;2294;51.818;8.484;2022-08-25T01:39:44;5.13;;;2.67;;
4563;SDS011;2294;51.818;8.484;2022-08-25T01:42:18;13.77;;;3.00;;
4563;SDS011;2294;51.818;8.484;2022-08-25T01:44:53;10.43;;;3.63;;
4563;SDS011;2294;51.818;8.484;2022-08-25T01:47:21;11.10;;;3.50;;
4563;SDS011;2294;51.818;8.484;2022-08-25T01:49:48;6.00;;;3.43;;
4563;SDS011;2294;51.818;8.484;2022-08-25T01:52:18;3.03;;;2.63;;
4563;SDS011;2294;51.818;8.484;2022-08-25T01:54:50;5.70;;;3.10;;
4563;SDS011;2294;51.818;8.484;2022-08-25T01:57:17;6.07;;;3.03;;
4563;SDS011;2294;51.818;8.484;2022-08-25T01:59:44;6.57;;;3.13;;
4563;SDS011;2294;51.818;8.484;2022-08-25T02:02:12;3.90;;;3.20;;
4563;SDS011;2294;51.818;8.484;2022-08-25T02:04:39;8.20;;;3.33;;
4563;SDS011;2294;51.818;8.484;2022-08-25T02:07:06;5.87;;;2.70;;
4563;SDS011;2294;51.818;8.484;2022-08-25T02:09:34;6.17;;;3.07;;
4563;SDS011;2294;51.818;8.484;2022-08-25T02:12:04;5.50;;;3.77;;
4563;SDS011;2294;51.818;8.484;2022-08-25T02:14:33;7.10;;;3.30;;
4563;SDS011;2294;51.818;8.484;2022-08-25T02:17:01;6.50;;;3.83;;
4563;SDS011;2294;51.818;8.484;2022-08-25T02:19:29;4.00;;;2.90;;
4563;SDS011;2294;51.818;8.484;2022-08-25T02:21:56;10.10;;;5.23;;
4563;SDS011;2294;51.818;8.484;2022-08-25T02:24:24;7.00;;;3.70;;
4563;SDS011;2294;51.818;8.484;2022-08-25T02:26:51;5.57;;;3.30;;
4563;SDS011;2294;51.818;8.484;2022-08-25T02:29:20;3.63;;;3.20;;
4563;SDS011;2294;51.818;8.484;2022-08-25T02:31:47;7.77;;;3.57;;
4563;SDS011;2294;51.818;8.484;2022-08-25T02:34:14;3.70;;;3.20;;
4563;SDS011;2294;51.818;8.484;2022-08-25T02:36:41;3.87;;;3.30;;
4563;SDS011;2294;51.818;8.484;2022-08-25T02:39:08;7.90;;;3.47;;
4563;SDS011;2294;51.818;8.484;2022-08-25T02:41:36;5.10;;;4.27;;
4563;SDS011;2294;51.818;8.484;2022-08-25T02:44:05;4.50;;;4.00;;
4563;SDS011;2294;51.818;8.484;2022-08-25T02:46:34;4.40;;;3.17;;
4563;SDS011;2294;51.818;8.484;2022-08-25T02:49:02;4.30;;;3.73;;
4563;SDS011;2294;51.818;8.484;2022-08-25T02:51:29;15.53;;;4.00;;
4563;SDS011;2294;51.818;8.484;2022-08-25T02:53:58;5.07;;;3.77;;
4563;SDS011;2294;51.818;8.484;2022-08-25T02:56:27;5.13;;;4.17;;
4563;SDS011;2294;51.818;8.484;2022-08-25T02:58:55;7.33;;;4.03;;
4563;SDS011;2294;51.818;8.484;2022-08-25T03:01:22;7.30;;;3.77;;
4563;SDS011;2294;51.818;8.484;2022-08-25T03:03:51;12.00;;;4.43;;
4563;SDS011;2294;51.818;8.484;2022-08-25T03:06:18;8.03;;;4.37;;
4563;SDS011;2294;51.818;8.484;2022-08-25T03:08:48;6.90;;;4.23;;
4563;SDS011;2294;51.818;8.484;2022-08-25T03:11:15;6.70;;;4.37;;
4563;SDS011;2294;51.818;8.484;2022-08-25T03:13:43;9.73;;;4.27;;
4563;SDS011;2294;51.818;8.484;2022-08-25T03:16:11;5.13;;;4.00;;
4563;SDS011;2294;51.818;8.484;2022-08-25T03:18:39;12.60;;;4.73;;
4563;SDS011;2294;51.818;8.484;2022-08-25T03:21:08;8.87;;;4.47;;
4563;SDS011;2294;51.818;8.484;2022-08-25T03:23:37;8.87;;;4.30;;
4563;SDS011;2294;51.818;8.484;2022-08-25T03:26:05;6.30;;;4.80;;
4563;SDS011;2294;51.818;8.484;2022-08-25T03:28:49;4.30;;;3.77;;
4563;SDS011;2294;51.818;8.484;2022-08-25T03:31:16;8.20;;;4.90;;
4563;SDS011;2294;51.818;8.484;2022-08-25T03:33:43;6.90;;;4.53;;
4563;SDS011;2294;51.818;8.484;2022-08-25T03:36:12;9.53;;;4.90;;
4563;SDS011;2294;51.818;8.484;2022-08-25T03:38:38;9.80;;;5.40;;
4563;SDS011;2294;51.818;8.484;2022-08-25T03:41:13;5.50;;;4.60;;
4563;SDS011;2294;51.818;8.484;2022-08-25T03:43:41;8.73;;;4.00;;
4563;SDS011;2294;51.818;8.484;2022-08-25T03:46:15;10.87;;;4.73;;
4563;SDS011;2294;51.818;8.484;2022-08-25T03:48:43;6.10;;;4.70;;
4563;SDS011;2294;51.818;8.484;2022-08-25T03:51:11;6.37;;;4.30;;
4563;SDS011;2294;51.818;8.484;2022-08-25T03:53:43;5.57;;;4.93;;
4563;SDS011;2294;51.818;8.484;2022-08-25T03:56:10;5.40;;;4.20;;
4563;SDS011;2294;51.818;8.484;2022-08-25T03:58:37;6.07;;;4.27;;
4563;SDS011;2294;51.818;8.484;2022-08-25T04:01:04;5.90;;;4.37;;
4563;SDS011;2294;51.818;8.484;2022-08-25T04:03:31;13.13;;;4.17;;
4563;SDS011;2294;51.818;8.484;2022-08-25T04:05:59;6.43;;;4.93;;
4563;SDS011;2294;51.818;8.484;2022-08-25T04:08:28;5.40;;;4.50;;
4563;SDS011;2294;51.818;8.484;2022-08-25T04:10:55;9.73;;;5.23;;
4563;SDS011;2294;51.818;8.484;2022-08-25T04:13:22;16.57;;;6.17;;
4563;SDS011;2294;51.818;8.484;2022-08-25T04:15:49;7.13;;;4.63;;
4563;SDS011;2294;51.818;8.484;2022-08-25T04:18:16;4.93;;;4.43;;
4563;SDS011;2294;51.818;8.484;2022-08-25T04:20:43;8.93;;;5.00;;
4563;SDS011;2294;51.818;8.484;2022-08-25T04:23:11;15.90;;;5.33;;
4563;SDS011;2294;51.818;8.484;2022-08-25T04:25:40;10.00;;;5.30;;
4563;SDS011;2294;51.818;8.484;2022-08-25T04:28:07;12.53;;;5.43;;
4563;SDS011;2294;51.818;8.484;2022-08-25T04:30:34;8.80;;;5.77;;
4563;SDS011;2294;51.818;8.484;2022-08-25T04:33:01;14.10;;;5.80;;
4563;SDS011;2294;51.818;8.484;2022-08-25T04:35:28;11.10;;;5.17;;
4563;SDS011;2294;51.818;8.484;2022-08-25T04:37:56;14.73;;;5.53;;
4563;SDS011;2294;51.818;8.484;2022-08-25T04:40:23;5.77;;;5.07;;
4563;SDS011;2294;51.818;8.484;2022-08-25T04:42:51;9.37;;;6.00;;
4563;SDS011;2294;51.818;8.484;2022-08-25T04:45:18;6.10;;;5.50;;
4563;SDS011;2294;51.818;8.484;2022-08-25T04:47:45;11.97;;;6.13;;
4563;SDS011;2294;51.818;8.484;2022-08-25T04:50:12;9.47;;;6.50;;
4563;SDS011;2294;51.818;8.484;2022-08-25T04:52:39;7.57;;;5.40;;
4563;SDS011;2294;51.818;8.484;2022-08-25T04:55:06;9.90;;;5.30;;
4563;SDS011;2294;51.818;8.484;2022-08-25T04:57:34;9.63;;;5.40;;
4563;SDS011;2294;51.818;8.484;2022-08-25T05:00:03;10.53;;;5.60;;
4563;SDS011;2294;51.818;8.484;2022-08-25T05:02:31;6.97;;;6.00;;
4563;SDS011;2294;51.818;8.484;2022-08-25T05:04:58;11.40;;;5.03;;
4563;SDS011;2294;51.818;8.484;2022-08-25T05:07:26;8.97;;;5.67;;
4563;SDS011;2294;51.818;8.484;2022-08-25T05:09:53;13.40;;;6.63;;
4563;SDS011;2294;51.818;8.484;2022-08-25T05:12:20;9.37;;;7.30;;
4563;SDS011;2294;51.818;8.484;2022-08-25T05:14:47;9.87;;;7.53;;
4563;SDS011;2294;51.818;8.484;2022-08-25T05:17:15;13.10;;;7.40;;
4563;SDS011;2294;51.818;8.484;2022-08-25T05:19:42;15.20;;;7.23;;
4563;SDS011;2294;51.818;8.484;2022-08-25T05:22:09;13.87;;;6.83;;
4563;SDS011;2294;51.818;8.484;2022-08-25T05:24:36;14.53;;;8.13;;
4563;SDS011;2294;51.818;8.484;2022-08-25T05:27:03;13.90;;;6.17;;
4563;SDS011;2294;51.818;8.484;2022-08-25T05:29:30;15.73;;;6.23;;
4563;SDS011;2294;51.818;8.484;2022-08-25T05:31:57;16.63;;;7.40;;
4563;SDS011;2294;51.818;8.484;2022-08-25T05:34:25;11.10;;;7.77;;
4563;SDS011;2294;51.818;8.484;2022-08-25T05:36:54;13.10;;;7.07;;
4563;SDS011;2294;51.818;8.484;2022-08-25T05:41:53;14.10;;;6.47;;
4563;SDS011;2294;51.818;8.484;2022-08-25T05:44:20;13.47;;;6.70;;
4563;SDS011;2294;51.818;8.484;2022-08-25T05:46:47;10.60;;;6.77;;
4563;SDS011;2294;51.818;8.484;2022-08-25T05:49:15;9.33;;;5.97;;
4563;SDS011;2294;51.818;8.484;2022-08-25T05:51:43;13.23;;;6.63;;
4563;SDS011;2294;51.818;8.484;2022-08-25T05:54:10;10.10;;;6.17;;
4563;SDS011;2294;51.818;8.484;2022-08-25T05:56:37;15.03;;;6.43;;
4563;SDS011;2294;51.818;8.484;2022-08-25T05:59:04;8.40;;;6.60;;
4563;SDS011;2294;51.818;8.484;2022-08-25T06:01:31;10.23;;;6.57;;
4563;SDS011;2294;51.818;8.484;2022-08-25T06:04:15;10.77;;;6.47;;
4563;SDS011;2294;51.818;8.484;2022-08-25T06:06:45;7.90;;;6.23;;
4563;SDS011;2294;51.818;8.484;2022-08-25T06:09:13;7.07;;;6.03;;
4563;SDS011;2294;51.818;8.484;2022-08-25T06:11:40;14.63;;;5.83;;
4563;SDS011;2294;51.818;8.484;2022-08-25T06:14:07;8.43;;;5.40;;
4563;SDS011;2294;51.818;8.484;2022-08-25T06:16:34;9.63;;;5.47;;
4563;SDS011;2294;51.818;8.484;2022-08-25T06:19:02;9.73;;;5.73;;
4563;SDS011;2294;51.818;8.484;2022-08-25T06:21:30;8.93;;;5.47;;
4563;SDS011;2294;51.818;8.484;2022-08-25T06:23:58;7.40;;;6.17;;
4563;SDS011;2294;51.818;8.484;2022-08-25T06:26:25;15.93;;;6.20;;
4563;SDS011;2294;51.818;8.484;2022-08-25T06:28:52;12.13;;;5.60;;
4563;SDS011;2294;51.818;8.484;2022-08-25T06:31:19;10.17;;;5.57;;
4563;SDS011;2294;51.818;8.484;2022-08-25T06:33:47;11.50;;;5.20;;
4563;SDS011;2294;51.818;8.484;2022-08-25T06:36:14;6.90;;;5.43;;
4563;SDS011;2294;51.818;8.484;2022-08-25T06:38:41;9.93;;;5.90;;
4563;SDS011;2294;51.818;8.484;2022-08-25T06:41:10;13.03;;;5.90;;
4563;SDS011;2294;51.818;8.484;2022-08-25T06:43:38;9.10;;;6.13;;
4563;SDS011;2294;51.818;8.484;2022-08-25T06:46:07;7.00;;;5.67;;
4563;SDS011;2294;51.818;8.484;2022-08-25T06:48:35;9.73;;;6.27;;
4563;SDS011;2294;51.818;8.484;2022-08-25T06:51:04;11.30;;;5.83;;
4563;SDS011;2294;51.818;8.484;2022-08-25T06:53:32;6.67;;;4.63;;
4563;SDS011;2294;51.818;8.484;2022-08-25T06:55:59;9.30;;;5.67;;
4563;SDS011;2294;51.818;8.484;2022-08-25T06:58:27;7.13;;;5.20;;
4563;SDS011;2294;51.818;8.484;2022-08-25T07:00:55;11.80;;;5.30;;
4563;SDS011;2294;51.818;8.484;2022-08-25T07:03:22;10.87;;;5.50;;
4563;SDS011;2294;51.818;8.484;2022-08-25T07:05:49;9.40;;;5.13;;
4563;SDS011;2294;51.818;8.484;2022-08-25T07:08:17;9.60;;;5.23;;
4563;SDS011;2294;51.818;8.484;2022-08-25T07:10:45;10.53;;;5.87;;
4563;SDS011;2294;51.818;8.484;2022-08-25T07:13:13;12.23;;;5.70;;
4563;SDS011;2294;51.818;8.484;2022-08-25T07:15:41;5.97;;;4.70;;
4563;SDS011;2294;51.818;8.484;2022-08-25T07:18:09;22.60;;;5.93;;
4563;SDS011;2294;51.818;8.484;2022-08-25T07:20:36;8.73;;;5.50;;
4563;SDS011;2294;51.818;8.484;2022-08-25T07:23:04;8.77;;;4.80;;
4563;SDS011;2294;51.818;8.484;2022-08-25T07:25:32;7.93;;;4.90;;
4563;SDS011;2294;51.818;8.484;2022-08-25T07:28:00;14.57;;;5.63;;
4563;SDS011;2294;51.818;8.484;2022-08-25T07:30:27;14.10;;;6.00;;
4563;SDS011;2294;51.818;8.484;2022-08-25T07:32:56;8.87;;;5.30;;
4563;SDS011;2294;51.818;8.484;2022-08-25T07:35:23;9.83;;;5.83;;
4563;SDS011;2294;51.818;8.484;2022-08-25T07:37:49;13.53;;;6.50;;
4563;SDS011;2294;51.818;8.484;2022-08-25T07:40:21;7.40;;;6.37;;
4563;SDS011;2294;51.818;8.484;2022-08-25T07:42:49;15.73;;;6.10;;
4563;SDS011;2294;51.818;8.484;2022-08-25T07:45:19;9.30;;;6.70;;
4563;SDS011;2294;51.818;8.484;2022-08-25T07:47:49;13.27;;;6.40;;
4563;SDS011;2294;51.818;8.484;2022-08-25T07:50:19;12.83;;;5.60;;
4563;SDS011;2294;51.818;8.484;2022-08-25T07:52:49;13.00;;;6.47;;
4563;SDS011;2294;51.818;8.484;2022-08-25T07:55:16;11.50;;;6.40;;
4563;SDS011;2294;51.818;8.484;2022-08-25T07:57:43;9.77;;;6.37;;
4563;SDS011;2294;51.818;8.484;2022-08-25T08:00:12;9.23;;;6.10;;
4563;SDS011;2294;51.818;8.484;2022-08-25T08:02:40;8.53;;;6.10;;
4563;SDS011;2294;51.818;8.484;2022-08-25T08:05:08;11.30;;;6.17;;
4563;SDS011;2294;51.818;8.484;2022-08-25T08:07:38;9.67;;;6.80;;
4563;SDS011;2294;51.818;8.484;2022-08-25T08:10:06;9.67;;;6.17;;
4563;SDS011;2294;51.818;8.484;2022-08-25T08:12:35;18.10;;;6.87;;
4563;SDS011;2294;51.818;8.484;2022-08-25T08:15:02;14.53;;;6.50;;
4563;SDS011;2294;51.818;8.484;2022-08-25T08:17:29;13.10;;;7.40;;
4563;SDS011;2294;51.818;8.484;2022-08-25T08:19:56;12.10;;;6.90;;
4563;SDS011;2294;51.818;8.484;2022-08-25T08:22:24;15.90;;;7.83;;
4563;SDS011;2294;51.818;8.484;2022-08-25T08:24:52;10.80;;;7.43;;
4563;SDS011;2294;51.818;8.484;2022-08-25T08:27:19;10.53;;;6.50;;
4563;SDS011;2294;51.818;8.484;2022-08-25T08:29:46;16.20;;;7.70;;
4563;SDS011;2294;51.818;8.484;2022-08-25T08:32:14;17.20;;;7.27;;
4563;SDS011;2294;51.818;8.484;2022-08-25T08:34:42;8.60;;;6.90;;
4563;SDS011;2294;51.818;8.484;2022-08-25T08:37:10;15.27;;;7.47;;
4563;SDS011;2294;51.818;8.484;2022-08-25T08:39:37;10.60;;;7.63;;
4563;SDS011;2294;51.818;8.484;2022-08-25T08:42:10;9.30;;;6.70;;
4563;SDS011;2294;51.818;8.484;2022-08-25T08:47:49;12.30;;;7.93;;
4563;SDS011;2294;51.818;8.484;2022-08-25T08:50:36;12.90;;;8.13;;
4563;SDS011;2294;51.818;8.484;2022-08-25T08:53:09;11.87;;;7.83;;
4563;SDS011;2294;51.818;8.484;2022-08-25T08:55:41;15.93;;;6.70;;
4563;SDS011;2294;51.818;8.484;2022-08-25T08:58:12;13.50;;;6.60;;
4563;SDS011;2294;51.818;8.484;2022-08-25T09:00:44;12.00;;;7.13;;
4563;SDS011;2294;51.818;8.484;2022-08-25T09:03:15;13.50;;;7.13;;
4563;SDS011;2294;51.818;8.484;2022-08-25T09:05:53;13.20;;;7.40;;
4563;SDS011;2294;51.818;8.484;2022-08-25T09:08:22;11.47;;;8.43;;
4563;SDS011;2294;51.818;8.484;2022-08-25T09:10:53;15.50;;;7.70;;
4563;SDS011;2294;51.818;8.484;2022-08-25T09:13:30;11.33;;;6.90;;
4563;SDS011;2294;51.818;8.484;2022-08-25T09:16:09;15.73;;;7.40;;
4563;SDS011;2294;51.818;8.484;2022-08-25T09:19:00;9.27;;;6.60;;
4563;SDS011;2294;51.818;8.484;2022-08-25T09:21:37;9.87;;;7.03;;
4563;SDS011;2294;51.818;8.484;2022-08-25T09:24:17;12.10;;;7.43;;
4563;SDS011;2294;51.818;8.484;2022-08-25T09:26:54;12.00;;;6.57;;
4563;SDS011;2294;51.818;8.484;2022-08-25T09:29:34;13.10;;;7.13;;
4563;SDS011;2294;51.818;8.484;2022-08-25T09:32:12;10.90;;;6.40;;
4563;SDS011;2294;51.818;8.484;2022-08-25T09:34:41;9.67;;;7.13;;
4563;SDS011;2294;51.818;8.484;2022-08-25T09:37:09;11.27;;;7.53;;
4563;SDS011;2294;51.818;8.484;2022-08-25T09:39:39;9.00;;;6.10;;
4563;SDS011;2294;51.818;8.484;2022-08-25T09:42:06;13.43;;;6.73;;
4563;SDS011;2294;51.818;8.484;2022-08-25T09:44:39;9.50;;;6.90;;
4563;SDS011;2294;51.818;8.484;2022-08-25T09:47:12;9.70;;;7.23;;
4563;SDS011;2294;51.818;8.484;2022-08-25T09:49:46;11.43;;;7.57;;
4563;SDS011;2294;51.818;8.484;2022-08-25T09:52:16;14.83;;;7.23;;
4563;SDS011;2294;51.818;8.484;2022-08-25T09:54:47;10.60;;;8.00;;
4563;SDS011;2294;51.818;8.484;2022-08-25T09:57:29;9.80;;;7.00;;
4563;SDS011;2294;51.818;8.484;2022-08-25T10:00:10;13.37;;;7.33;;
4563;SDS011;2294;51.818;8.484;2022-08-25T10:02:40;22.33;;;8.17;;
4563;SDS011;2294;51.818;8.484;2022-08-25T10:05:19;12.70;;;7.87;;
4563;SDS011;2294;51.818;8.484;2022-08-25T10:07:49;13.57;;;6.97;;
4563;SDS011;2294;51.818;8.484;2022-08-25T10:10:21;14.00;;;7.60;;
4563;SDS011;2294;51.818;8.484;2022-08-25T10:12:51;9.87;;;7.17;;
4563;SDS011;2294;51.818;8.484;2022-08-25T10:15:21;12.03;;;7.57;;
4563;SDS011;2294;51.818;8.484;2022-08-25T10:17:51;13.53;;;7.30;;
4563;SDS011;2294;51.818;8.484;2022-08-25T10:20:22;10.90;;;6.50;;
4563;SDS011;2294;51.818;8.484;2022-08-25T10:22:50;11.30;;;5.90;;
4563;SDS011;2294;51.818;8.484;2022-08-25T10:25:20;9.53;;;6.77;;
4563;SDS011;2294;51.818;8.484;2022-08-25T10:27:53;7.53;;;6.20;;
4563;SDS011;2294;51.818;8.484;2022-08-25T10:30:33;12.60;;;7.57;;
4563;SDS011;2294;51.818;8.484;2022-08-25T10:33:18;9.70;;;6.60;;
4563;SDS011;2294;51.818;8.484;2022-08-25T10:35:55;9.20;;;6.40;;
4563;SDS011;2294;51.818;8.484;2022-08-25T10:38:31;16.83;;;6.60;;
4563;SDS011;2294;51.818;8.484;2022-08-25T10:41:08;12.37;;;7.10;;
4563;SDS011;2294;51.818;8.484;2022-08-25T10:43:51;8.00;;;6.20;;
4563;SDS011;2294;51.818;8.484;2022-08-25T10:46:25;12.07;;;6.40;;
4563;SDS011;2294;51.818;8.484;2022-08-25T10:49:01;10.50;;;5.73;;
4563;SDS011;2294;51.818;8.484;2022-08-25T10:51:37;12.87;;;5.53;;
4563;SDS011;2294;51.818;8.484;2022-08-25T10:54:16;12.03;;;5.80;;
4563;SDS011;2294;51.818;8.484;2022-08-25T10:56:55;8.53;;;5.97;;
4563;SDS011;2294;51.818;8.484;2022-08-25T10:59:34;10.60;;;4.93;;
4563;SDS011;2294;51.818;8.484;2022-08-25T11:05:24;8.37;;;6.50;;
4563;SDS011;2294;51.818;8.484;2022-08-25T11:07:53;9.27;;;6.40;;
4563;SDS011;2294;51.818;8.484;2022-08-25T11:10:31;8.97;;;5.40;;
4563;SDS011;2294;51.818;8.484;2022-08-25T11:13:05;8.80;;;5.30;;
4563;SDS011;2294;51.818;8.484;2022-08-25T11:15:39;7.63;;;5.43;;
4563;SDS011;2294;51.818;8.484;2022-08-25T11:18:12;14.73;;;5.97;;
4563;SDS011;2294;51.818;8.484;2022-08-25T11:20:41;9.33;;;5.23;;
4563;SDS011;2294;51.818;8.484;2022-08-25T11:23:14;6.87;;;5.40;;
4563;SDS011;2294;51.818;8.484;2022-08-25T11:25:46;12.47;;;5.80;;
4563;SDS011;2294;51.818;8.484;2022-08-25T11:28:17;7.27;;;5.40;;
4563;SDS011;2294;51.818;8.484;2022-08-25T11:30:51;8.10;;;4.40;;
4563;SDS011;2294;51.818;8.484;2022-08-25T11:33:24;7.93;;;5.50;;
4563;SDS011;2294;51.818;8.484;2022-08-25T11:35:54;5.57;;;4.80;;
4563;SDS011;2294;51.818;8.484;2022-08-25T11:38:28;6.40;;;4.70;;
4563;SDS011;2294;51.818;8.484;2022-08-25T11:41:10;5.83;;;5.27;;
4563;SDS011;2294;51.818;8.484;2022-08-25T11:43:53;8.63;;;6.00;;
4563;SDS011;2294;51.818;8.484;2022-08-25T11:46:35;6.50;;;5.40;;
4563;SDS011;2294;51.818;8.484;2022-08-25T11:49:18;9.47;;;5.53;;
4563;SDS011;2294;51.818;8.484;2022-08-25T11:52:07;7.00;;;5.27;;
4563;SDS011;2294;51.818;8.484;2022-08-25T11:55:11;10.23;;;5.77;;
4563;SDS011;2294;51.818;8.484;2022-08-25T11:57:40;10.17;;;5.40;;
4563;SDS011;2294;51.818;8.484;2022-08-25T12:00:10;8.93;;;5.77;;
4563;SDS011;2294;51.818;8.484;2022-08-25T12:02:41;14.13;;;6.20;;
4563;SDS011;2294;51.818;8.484;2022-08-25T12:05:11;10.03;;;6.00;;
4563;SDS011;2294;51.818;8.484;2022-08-25T12:08:27;8.90;;;5.00;;
4563;SDS011;2294;51.818;8.484;2022-08-25T12:14:14;9.03;;;5.60;;
4563;SDS011;2294;51.818;8.484;2022-08-25T12:17:02;13.77;;;6.00;;
4563;SDS011;2294;51.818;8.484;2022-08-25T12:19:47;6.77;;;4.97;;
4563;SDS011;2294;51.818;8.484;2022-08-25T12:25:41;10.10;;;5.00;;
4563;SDS011;2294;51.818;8.484;2022-08-25T12:31:19;6.07;;;5.13;;
4563;SDS011;2294;51.818;8.484;2022-08-25T12:33:57;7.70;;;5.83;;
4563;SDS011;2294;51.818;8.484;2022-08-25T12:36:35;6.50;;;4.97;;
4563;SDS011;2294;51.818;8.484;2022-08-25T12:39:14;8.67;;;4.80;;
4563;SDS011;2294;51.818;8.484;2022-08-25T12:41:55;11.23;;;5.00;;
4563;SDS011;2294;51.818;8.484;2022-08-25T12:44:35;8.37;;;5.30;;
4563;SDS011;2294;51.818;8.484;2022-08-25T12:52:53;7.47;;;4.43;;
4563;SDS011;2294;51.818;8.484;2022-08-25T12:55:26;5.80;;;4.57;;
4563;SDS011;2294;51.818;8.484;2022-08-25T12:57:55;6.97;;;5.23;;
4563;SDS011;2294;51.818;8.484;2022-08-25T13:00:25;9.63;;;6.00;;
4563;SDS011;2294;51.818;8.484;2022-08-25T13:06:04;13.00;;;4.73;;
4563;SDS011;2294;51.818;8.484;2022-08-25T13:08:57;8.80;;;4.87;;
4563;SDS011;2294;51.818;8.484;2022-08-25T13:11:59;7.17;;;4.60;;
4563;SDS011;2294;51.818;8.484;2022-08-25T13:14:37;9.17;;;5.17;;
4563;SDS011;2294;51.818;8.484;2022-08-25T13:17:06;9.70;;;4.53;;
4563;SDS011;2294;51.818;8.484;2022-08-25T13:19:34;11.40;;;5.10;;
4563;SDS011;2294;51.818;8.484;2022-08-25T13:22:03;7.57;;;5.93;;
4563;SDS011;2294;51.818;8.484;2022-08-25T13:24:38;9.13;;;5.53;;
4563;SDS011;2294;51.818;8.484;2022-08-25T13:27:08;12.30;;;5.30;;
4563;SDS011;2294;51.818;8.484;2022-08-25T13:29:52;9.30;;;5.23;;
4563;SDS011;2294;51.818;8.484;2022-08-25T13:32:24;12.60;;;5.70;;
4563;SDS011;2294;51.818;8.484;2022-08-25T13:34:54;8.83;;;5.53;;
4563;SDS011;2294;51.818;8.484;2022-08-25T13:37:35;13.73;;;5.53;;
4563;SDS011;2294;51.818;8.484;2022-08-25T13:40:10;6.40;;;5.13;;
4563;SDS011;2294;51.818;8.484;2022-08-25T13:42:39;6.60;;;5.50;;
4563;SDS011;2294;51.818;8.484;2022-08-25T13:45:08;13.30;;;5.33;;
4563;SDS011;2294;51.818;8.484;2022-08-25T13:47:40;11.97;;;5.30;;
4563;SDS011;2294;51.818;8.484;2022-08-25T13:50:15;8.10;;;4.67;;
4563;SDS011;2294;51.818;8.484;2022-08-25T13:52:46;6.90;;;5.37;;
4563;SDS011;2294;51.818;8.484;2022-08-25T13:55:19;7.27;;;5.10;;
4563;SDS011;2294;51.818;8.484;2022-08-25T13:57:48;12.13;;;6.03;;
4563;SDS011;2294;51.818;8.484;2022-08-25T14:00:25;9.30;;;5.73;;
4563;SDS011;2294;51.818;8.484;2022-08-25T14:02:55;7.20;;;5.40;;
4563;SDS011;2294;51.818;8.484;2022-08-25T14:05:34;9.40;;;5.10;;
4563;SDS011;2294;51.818;8.484;2022-08-25T14:08:03;8.47;;;5.00;;
4563;SDS011;2294;51.818;8.484;2022-08-25T14:10:34;7.73;;;4.70;;
4563;SDS011;2294;51.818;8.484;2022-08-25T14:13:08;6.00;;;4.00;;
4563;SDS011;2294;51.818;8.484;2022-08-25T14:15:41;9.27;;;5.63;;
4563;SDS011;2294;51.818;8.484;2022-08-25T14:18:12;13.00;;;5.20;;
4563;SDS011;2294;51.818;8.484;2022-08-25T14:20:45;8.00;;;5.03;;
4563;SDS011;2294;51.818;8.484;2022-08-25T14:23:15;8.33;;;4.80;;
4563;SDS011;2294;51.818;8.484;2022-08-25T14:25:45;6.10;;;4.70;;
4563;SDS011;2294;51.818;8.484;2022-08-25T14:28:13;5.30;;;4.33;;
4563;SDS011;2294;51.818;8.484;2022-08-25T14:30:43;9.63;;;4.80;;
4563;SDS011;2294;51.818;8.484;2022-08-25T14:33:14;17.17;;;5.07;;
4563;SDS011;2294;51.818;8.484;2022-08-25T14:35:43;8.90;;;5.37;;
4563;SDS011;2294;51.818;8.484;2022-08-25T14:38:13;8.80;;;5.70;;
4563;SDS011;2294;51.818;8.484;2022-08-25T14:40:41;10.93;;;5.20;;
4563;SDS011;2294;51.818;8.484;2022-08-25T14:43:08;6.77;;;4.90;;
4563;SDS011;2294;51.818;8.484;2022-08-25T14:45:36;10.93;;;5.10;;
4563;SDS011;2294;51.818;8.484;2022-08-25T14:48:08;4.67;;;4.17;;
4563;SDS011;2294;51.818;8.484;2022-08-25T14:50:41;7.97;;;4.60;;
4563;SDS011;2294;51.818;8.484;2022-08-25T14:53:08;7.07;;;4.27;;
4563;SDS011;2294;51.818;8.484;2022-08-25T14:55:35;4.77;;;4.30;;
4563;SDS011;2294;51.818;8.484;2022-08-25T14:58:02;9.90;;;4.93;;
4563;SDS011;2294;51.818;8.484;2022-08-25T15:00:29;8.20;;;5.27;;
4563;SDS011;2294;51.818;8.484;2022-08-25T15:03:05;12.20;;;5.33;;
4563;SDS011;2294;51.818;8.484;2022-08-25T15:05:35;7.63;;;4.60;;
4563;SDS011;2294;51.818;8.484;2022-08-25T15:08:02;8.60;;;4.37;;
4563;SDS011;2294;51.818;8.484;2022-08-25T15:10:47;9.77;;;4.80;;
4563;SDS011;2294;51.818;8.484;2022-08-25T15:13:13;6.47;;;4.93;;
4563;SDS011;2294;51.818;8.484;2022-08-25T15:15:42;11.80;;;4.90;;
4563;SDS011;2294;51.818;8.484;2022-08-25T15:18:11;9.23;;;4.37;;
4563;SDS011;2294;51.818;8.484;2022-08-25T15:20:38;7.50;;;5.13;;
4563;SDS011;2294;51.818;8.484;2022-08-25T15:23:05;5.20;;;4.50;;
4563;SDS011;2294;51.818;8.484;2022-08-25T15:25:32;6.70;;;5.40;;
4563;SDS011;2294;51.818;8.484;2022-08-25T15:28:02;6.70;;;4.23;;
4563;SDS011;2294;51.818;8.484;2022-08-25T15:30:29;5.30;;;4.43;;
4563;SDS011;2294;51.818;8.484;2022-08-25T15:32:56;11.60;;;4.90;;
4563;SDS011;2294;51.818;8.484;2022-08-25T15:35:25;11.03;;;4.47;;
4563;SDS011;2294;51.818;8.484;2022-08-25T15:37:52;5.97;;;3.80;;
4563;SDS011;2294;51.818;8.484;2022-08-25T15:40:20;6.63;;;3.90;;
4563;SDS011;2294;51.818;8.484;2022-08-25T15:42:48;6.90;;;4.57;;
4563;SDS011;2294;51.818;8.484;2022-08-25T15:45:14;8.40;;;4.73;;
4563;SDS011;2294;51.818;8.484;2022-08-25T15:47:42;10.43;;;4.90;;
4563;SDS011;2294;51.818;8.484;2022-08-25T15:50:11;10.27;;;5.00;;
4563;SDS011;2294;51.818;8.484;2022-08-25T15:52:42;11.87;;;4.90;;
4563;SDS011;2294;51.818;8.484;2022-08-25T15:55:10;6.70;;;4.53;;
4563;SDS011;2294;51.818;8.484;2022-08-25T15:57:38;7.70;;;4.43;;